createdAt,value
2019-02-02T00:00:05.806Z,0.65
2019-02-02T00:01:05.795Z,0.68
2019-02-02T00:02:05.795Z,0.71
2019-02-02T00:03:05.774Z,0.68
2019-02-02T00:04:05.764Z,0.72
2019-02-02T00:05:05.754Z,0.76
2019-02-02T00:06:05.742Z,0.75
2019-02-02T00:07:05.744Z,0.68
2019-02-02T00:08:05.727Z,0.75
2019-02-02T00:09:05.712Z,0.72
2019-02-02T00:10:05.701Z,0.64
2019-02-02T00:11:05.690Z,0.65
2019-02-02T00:12:05.680Z,0.58
2019-02-02T00:13:05.677Z,0.64
2019-02-02T00:14:05.664Z,0.65
2019-02-02T00:15:05.647Z,0.61
2019-02-02T00:16:05.639Z,0.57
2019-02-02T00:17:05.626Z,0.71
2019-02-02T00:18:05.625Z,0.60
2019-02-02T00:19:05.606Z,0.61
2019-02-02T00:20:05.594Z,0.60
2019-02-02T00:21:05.584Z,0.58
2019-02-02T00:22:05.573Z,0.57
2019-02-02T00:23:05.573Z,0.64
2019-02-02T00:24:05.554Z,0.64
2019-02-02T00:25:05.541Z,0.53
2019-02-02T00:26:05.531Z,0.60
2019-02-02T00:27:05.520Z,0.64
2019-02-02T00:28:05.519Z,0.53
2019-02-02T00:29:05.501Z,0.65
2019-02-02T00:30:05.490Z,0.51
2019-02-02T00:31:05.479Z,0.53
2019-02-02T00:32:05.467Z,0.61
2019-02-02T00:33:05.467Z,0.70
2019-02-02T00:34:05.446Z,0.52
2019-02-02T00:35:05.441Z,0.60
2019-02-02T00:36:05.425Z,0.58
2019-02-02T00:37:05.416Z,0.58
2019-02-02T00:38:05.413Z,0.64
2019-02-02T00:39:05.394Z,0.67
2019-02-02T00:40:05.383Z,0.60
2019-02-02T00:41:05.375Z,0.67
2019-02-02T00:42:05.362Z,0.45
2019-02-02T00:43:05.363Z,0.46
2019-02-02T00:44:05.368Z,0.67
2019-02-02T00:45:05.331Z,0.51
2019-02-02T00:46:05.322Z,0.49
2019-02-02T00:47:05.309Z,0.60
2019-02-02T00:48:05.308Z,0.52
2019-02-02T00:49:05.296Z,0.62
2019-02-02T00:50:05.279Z,0.60
2019-02-02T00:51:05.268Z,0.46
2019-02-02T00:52:05.257Z,0.60
2019-02-02T00:53:05.256Z,0.61
2019-02-02T00:54:05.237Z,0.58
2019-02-02T00:55:05.230Z,0.61
2019-02-02T00:56:05.216Z,0.61
2019-02-02T00:57:05.203Z,0.58
2019-02-02T00:58:05.203Z,0.52
2019-02-02T00:59:05.186Z,0.64
2019-02-02T01:00:05.175Z,0.46
2019-02-02T01:01:05.163Z,0.60
2019-02-02T01:02:05.151Z,0.52
2019-02-02T01:03:05.149Z,0.60
2019-02-02T01:04:05.130Z,0.53
2019-02-02T01:05:05.124Z,0.64
2019-02-02T01:06:05.388Z,0.67
2019-02-02T01:07:05.098Z,0.67
2019-02-02T01:08:05.097Z,0.61
2019-02-02T01:09:05.076Z,0.64
2019-02-02T01:10:05.067Z,0.62
2019-02-02T01:11:05.056Z,0.62
2019-02-02T01:12:05.046Z,0.62
2019-02-02T01:13:05.046Z,0.61
2019-02-02T01:14:05.025Z,0.61
2019-02-02T01:15:05.013Z,0.62
2019-02-02T01:16:05.003Z,0.62
2019-02-02T01:17:04.991Z,0.58
2019-02-02T01:18:04.992Z,0.71
2019-02-02T01:19:04.972Z,0.62
2019-02-02T01:20:04.961Z,0.60
2019-02-02T01:21:04.953Z,0.61
2019-02-02T01:22:04.942Z,0.64
2019-02-02T01:23:05.286Z,0.62
2019-02-02T01:24:04.924Z,0.64
2019-02-02T01:25:04.908Z,0.51
2019-02-02T01:26:04.897Z,0.51
2019-02-02T01:27:04.887Z,0.58
2019-02-02T01:28:05.754Z,0.64
2019-02-02T01:29:04.877Z,0.52
2019-02-02T01:30:04.858Z,0.65
2019-02-02T01:31:04.844Z,0.51
2019-02-02T01:32:04.835Z,0.57
2019-02-02T01:33:04.827Z,0.58
2019-02-02T01:34:04.821Z,0.71
2019-02-02T01:35:04.808Z,0.65
2019-02-02T01:36:04.798Z,0.57
2019-02-02T01:37:04.781Z,0.60
2019-02-02T01:38:04.771Z,0.64
2019-02-02T01:39:04.769Z,0.51
2019-02-02T01:40:04.749Z,0.51
2019-02-02T01:41:04.740Z,0.57
2019-02-02T01:42:04.733Z,0.51
2019-02-02T01:43:04.718Z,0.49
2019-02-02T01:44:04.833Z,0.65
2019-02-02T01:45:04.696Z,0.51
2019-02-02T01:46:04.686Z,0.64
2019-02-02T01:47:04.680Z,0.68
2019-02-02T01:48:04.671Z,0.58
2019-02-02T01:49:04.663Z,0.65
2019-02-02T01:50:04.644Z,0.58
2019-02-02T01:51:04.633Z,0.62
2019-02-02T01:52:04.626Z,0.57
2019-02-02T01:53:04.612Z,0.64
2019-02-02T01:54:04.611Z,0.53
2019-02-02T01:55:04.592Z,0.65
2019-02-02T01:56:04.580Z,0.61
2019-02-02T01:57:04.569Z,0.58
2019-02-02T01:58:15.955Z,0.53
2019-02-02T01:59:05.556Z,0.68
2019-02-02T02:00:04.539Z,0.53
2019-02-02T02:01:04.529Z,0.51
2019-02-02T02:02:04.517Z,0.57
2019-02-02T02:03:04.506Z,0.58
2019-02-02T02:04:04.504Z,0.65
2019-02-02T02:05:04.486Z,0.58
2019-02-02T02:06:04.480Z,0.61
2019-02-02T02:07:04.464Z,0.51
2019-02-02T02:08:04.454Z,0.57
2019-02-02T02:09:04.456Z,0.52
2019-02-02T02:10:04.432Z,0.67
2019-02-02T02:11:04.422Z,0.62
2019-02-02T02:12:04.411Z,0.58
2019-02-02T02:13:04.400Z,0.58
2019-02-02T02:14:04.400Z,0.60
2019-02-02T02:15:04.381Z,0.52
2019-02-02T02:16:04.371Z,0.48
2019-02-02T02:17:04.360Z,0.46
2019-02-02T02:18:04.348Z,0.46
2019-02-02T02:19:04.349Z,0.57
2019-02-02T02:20:04.327Z,0.57
2019-02-02T02:21:04.316Z,0.45
2019-02-02T02:22:04.305Z,0.57
2019-02-02T02:23:04.307Z,0.57
2019-02-02T02:24:04.293Z,0.53
2019-02-02T02:25:04.274Z,0.53
2019-02-02T02:26:04.263Z,0.58
2019-02-02T02:27:04.253Z,0.60
2019-02-02T02:28:04.243Z,0.61
2019-02-02T02:29:04.240Z,0.71
2019-02-02T02:30:04.221Z,0.62
2019-02-02T02:31:04.216Z,0.57
2019-02-02T02:32:04.201Z,0.58
2019-02-02T02:33:04.188Z,0.52
2019-02-02T02:34:04.187Z,0.64
2019-02-02T02:35:04.174Z,0.62
2019-02-02T02:36:04.158Z,0.65
2019-02-02T02:37:04.163Z,0.64
2019-02-02T02:38:04.136Z,0.53
2019-02-02T02:39:04.151Z,0.61
2019-02-02T02:40:04.119Z,0.49
2019-02-02T02:41:04.106Z,0.48
2019-02-02T02:42:04.095Z,0.62
2019-02-02T02:43:04.085Z,0.57
2019-02-02T02:44:04.073Z,0.64
2019-02-02T02:45:04.071Z,0.68
2019-02-02T02:46:04.051Z,0.58
2019-02-02T02:47:04.041Z,0.62
2019-02-02T02:48:04.032Z,0.52
2019-02-02T02:49:04.020Z,0.58
2019-02-02T02:50:04.020Z,0.51
2019-02-02T02:51:03.999Z,0.61
2019-02-02T02:52:03.989Z,0.61
2019-02-02T02:53:03.982Z,0.52
2019-02-02T02:54:03.967Z,0.61
2019-02-02T02:55:03.968Z,0.52
2019-02-02T02:56:03.946Z,0.61
2019-02-02T02:57:03.937Z,0.57
2019-02-02T02:58:03.928Z,0.57
2019-02-02T02:59:03.914Z,0.48
2019-02-02T03:00:03.912Z,0.46
2019-02-02T03:01:03.894Z,0.46
2019-02-02T03:02:03.882Z,0.41
2019-02-02T03:03:03.884Z,0.48
2019-02-02T03:04:03.866Z,0.46
2019-02-02T03:05:03.858Z,0.45
2019-02-02T03:06:03.884Z,0.48
2019-02-02T03:07:03.830Z,0.48
2019-02-02T03:08:03.819Z,0.48
2019-02-02T03:09:03.808Z,0.46
2019-02-02T03:10:03.807Z,0.46
2019-02-02T03:11:03.787Z,0.46
2019-02-02T03:12:03.777Z,0.43
2019-02-02T03:13:03.766Z,0.41
2019-02-02T03:14:03.758Z,0.34
2019-02-02T03:15:03.754Z,0.38
2019-02-02T03:16:03.738Z,0.41
2019-02-02T03:17:03.723Z,0.36
2019-02-02T03:18:03.823Z,0.30
2019-02-02T03:19:03.703Z,0.30
2019-02-02T03:20:03.704Z,0.33
2019-02-02T03:21:03.683Z,0.34
2019-02-02T03:22:03.685Z,0.31
2019-02-02T03:23:03.659Z,0.30
2019-02-02T03:24:03.652Z,0.31
2019-02-02T03:25:03.651Z,0.42
2019-02-02T03:26:03.630Z,0.43
2019-02-02T03:27:03.689Z,0.52
2019-02-02T03:28:03.621Z,0.49
2019-02-02T03:29:03.598Z,0.46
2019-02-02T03:30:03.602Z,0.51
2019-02-02T03:31:03.591Z,0.42
2019-02-02T03:32:03.588Z,0.45
2019-02-02T03:33:03.558Z,0.42
2019-02-02T03:34:03.546Z,0.45
2019-02-02T03:35:03.540Z,0.46
2019-02-02T03:36:03.532Z,0.49
2019-02-02T03:37:03.520Z,0.43
2019-02-02T03:38:03.501Z,0.41
2019-02-02T03:39:03.491Z,0.45
2019-02-02T03:40:03.493Z,0.43
2019-02-02T03:41:03.471Z,0.36
2019-02-02T03:42:03.460Z,0.36
2019-02-02T03:43:03.454Z,0.43
2019-02-02T03:44:03.437Z,0.36
2019-02-02T03:45:03.440Z,0.45
2019-02-02T03:46:03.416Z,0.43
2019-02-02T03:47:03.414Z,0.48
2019-02-02T03:48:03.416Z,0.39
2019-02-02T03:49:03.392Z,0.38
2019-02-02T03:50:03.384Z,0.36
2019-02-02T03:51:03.369Z,0.39
2019-02-02T03:52:03.353Z,0.31
2019-02-02T03:53:03.342Z,0.34
2019-02-02T03:54:08.816Z,0.36
2019-02-02T03:55:04.329Z,0.39
2019-02-02T03:56:03.375Z,0.36
2019-02-02T03:57:03.301Z,0.41
2019-02-02T03:58:03.289Z,0.46
2019-02-02T03:59:06.503Z,0.41
2019-02-02T04:00:03.270Z,0.45
2019-02-02T04:01:03.268Z,0.43
2019-02-02T04:02:03.249Z,0.43
2019-02-02T04:03:03.240Z,0.42
2019-02-02T04:04:03.226Z,0.45
2019-02-02T04:05:03.214Z,0.42
2019-02-02T04:06:03.223Z,0.49
2019-02-02T04:07:03.194Z,0.43
2019-02-02T04:08:03.185Z,0.46
2019-02-02T04:09:03.179Z,0.43
2019-02-02T04:10:03.165Z,0.45
2019-02-02T04:11:03.163Z,0.41
2019-02-02T04:12:03.142Z,0.45
2019-02-02T04:13:03.137Z,0.45
2019-02-02T04:14:03.124Z,0.41
2019-02-02T04:15:03.110Z,0.45
2019-02-02T04:16:03.109Z,0.52
2019-02-02T04:17:03.091Z,0.43
2019-02-02T04:18:03.078Z,0.57
2019-02-02T04:19:03.075Z,0.46
2019-02-02T04:20:03.059Z,0.43
2019-02-02T04:21:03.058Z,0.48
2019-02-02T04:22:03.036Z,0.42
2019-02-02T04:23:03.028Z,0.49
2019-02-02T04:24:03.014Z,0.48
2019-02-02T04:25:03.007Z,0.42
2019-02-02T04:26:03.002Z,0.45
2019-02-02T04:27:02.985Z,0.57
2019-02-02T04:28:02.973Z,0.58
2019-02-02T04:29:02.961Z,0.58
2019-02-02T04:30:02.953Z,0.53
2019-02-02T04:31:02.948Z,0.49
2019-02-02T04:32:02.930Z,0.49
2019-02-02T04:33:02.922Z,0.58
2019-02-02T04:34:02.908Z,0.58
2019-02-02T04:35:02.897Z,0.57
2019-02-02T04:36:02.898Z,0.57
2019-02-02T04:37:02.877Z,0.53
2019-02-02T04:38:02.866Z,0.52
2019-02-02T04:39:02.858Z,0.58
2019-02-02T04:40:02.846Z,0.53
2019-02-02T04:41:02.843Z,0.57
2019-02-02T04:42:02.827Z,0.48
2019-02-02T04:43:02.836Z,0.51
2019-02-02T04:44:02.804Z,0.46
2019-02-02T04:45:02.793Z,0.39
2019-02-02T04:46:02.798Z,0.42
2019-02-02T04:47:02.771Z,0.46
2019-02-02T04:48:02.761Z,0.45
2019-02-02T04:49:02.751Z,0.43
2019-02-02T04:50:02.749Z,0.43
2019-02-02T04:51:02.737Z,0.43
2019-02-02T04:52:02.718Z,0.43
2019-02-02T04:53:02.708Z,0.52
2019-02-02T04:54:02.697Z,0.42
2019-02-02T04:55:02.688Z,0.41
2019-02-02T04:56:02.685Z,0.45
2019-02-02T04:57:02.666Z,0.43
2019-02-02T04:58:02.655Z,0.41
2019-02-02T04:59:02.645Z,0.43
2019-02-02T05:00:02.634Z,0.49
2019-02-02T05:01:02.632Z,0.49
2019-02-02T05:02:02.612Z,0.43
2019-02-02T05:03:02.602Z,0.45
2019-02-02T05:04:02.604Z,0.49
2019-02-02T05:05:02.581Z,0.39
2019-02-02T05:06:02.871Z,0.53
2019-02-02T05:07:02.560Z,0.48
2019-02-02T05:08:02.550Z,0.45
2019-02-02T05:09:02.539Z,0.42
2019-02-02T05:10:02.529Z,0.45
2019-02-02T05:11:02.518Z,0.48
2019-02-02T05:12:02.515Z,0.43
2019-02-02T05:13:02.496Z,0.53
2019-02-02T05:14:02.601Z,0.49
2019-02-02T05:15:02.476Z,0.42
2019-02-02T05:16:02.465Z,0.43
2019-02-02T05:17:02.463Z,0.42
2019-02-02T05:18:02.443Z,0.34
2019-02-02T05:19:02.434Z,0.38
2019-02-02T05:20:02.421Z,0.34
2019-02-02T05:21:02.414Z,0.34
2019-02-02T05:22:02.411Z,0.41
2019-02-02T05:23:02.392Z,0.33
2019-02-02T05:24:02.380Z,0.39
2019-02-02T05:25:02.369Z,0.33
2019-02-02T05:26:02.358Z,0.36
2019-02-02T05:27:02.357Z,0.36
2019-02-02T05:28:02.337Z,0.34
2019-02-02T05:29:02.327Z,0.36
2019-02-02T05:30:02.316Z,0.27
2019-02-02T05:31:02.310Z,0.34
2019-02-02T05:32:02.317Z,0.41
2019-02-02T05:33:02.394Z,0.30
2019-02-02T05:34:02.287Z,0.33
2019-02-02T05:35:02.263Z,0.39
2019-02-02T05:36:02.253Z,0.33
2019-02-02T05:37:02.251Z,0.38
2019-02-02T05:38:02.231Z,0.41
2019-02-02T05:39:02.220Z,0.33
2019-02-02T05:40:02.210Z,0.45
2019-02-02T05:41:02.200Z,0.43
2019-02-02T05:42:02.196Z,0.33
2019-02-02T05:43:02.185Z,0.34
2019-02-02T05:44:02.167Z,0.33
2019-02-02T05:45:02.157Z,0.30
2019-02-02T05:46:02.148Z,0.39
2019-02-02T05:47:02.148Z,0.33
2019-02-02T05:48:02.129Z,0.39
2019-02-02T05:49:02.115Z,0.33
2019-02-02T05:50:02.106Z,0.38
2019-02-02T05:51:02.098Z,0.30
2019-02-02T05:52:02.092Z,0.33
2019-02-02T05:53:02.075Z,0.30
2019-02-02T05:54:02.061Z,0.30
2019-02-02T05:55:02.053Z,0.41
2019-02-02T05:56:02.043Z,0.34
2019-02-02T05:57:02.039Z,0.36
2019-02-02T05:58:02.020Z,0.31
2019-02-02T05:59:02.008Z,0.30
2019-02-02T06:00:01.999Z,0.39
2019-02-02T06:01:01.990Z,0.34
2019-02-02T06:02:01.987Z,0.41
2019-02-02T06:03:01.993Z,0.38
2019-02-02T06:04:01.960Z,0.41
2019-02-02T06:05:01.946Z,0.42
2019-02-02T06:06:02.068Z,0.42
2019-02-02T06:07:01.949Z,0.42
2019-02-02T06:08:01.914Z,0.42
2019-02-02T06:09:01.904Z,0.46
2019-02-02T06:10:01.893Z,0.46
2019-02-02T06:11:01.882Z,0.38
2019-02-02T06:12:01.881Z,0.48
2019-02-02T06:13:01.861Z,0.43
2019-02-02T06:14:01.851Z,0.51
2019-02-02T06:15:01.840Z,0.57
2019-02-02T06:16:01.831Z,0.60
2019-02-02T06:17:01.830Z,0.57
2019-02-02T06:18:01.809Z,0.61
2019-02-02T06:19:01.798Z,0.65
2019-02-02T06:20:01.789Z,0.49
2019-02-02T06:21:01.777Z,0.62
2019-02-02T06:22:01.777Z,0.52
2019-02-02T06:23:01.755Z,0.70
2019-02-02T06:24:01.748Z,0.51
2019-02-02T06:25:01.735Z,0.60
2019-02-02T06:26:01.730Z,0.61
2019-02-02T06:27:01.740Z,0.53
2019-02-02T06:28:01.703Z,0.61
2019-02-02T06:29:01.694Z,0.52
2019-02-02T06:30:04.404Z,0.51
2019-02-02T06:31:01.672Z,0.52
2019-02-02T06:32:11.556Z,0.49
2019-02-02T06:33:02.650Z,0.68
2019-02-02T06:34:01.640Z,0.53
2019-02-02T06:35:01.633Z,0.58
2019-02-02T06:36:03.647Z,0.53
2019-02-02T06:37:01.616Z,0.52
2019-02-02T06:38:01.598Z,0.53
2019-02-02T06:39:01.589Z,0.60
2019-02-02T06:40:01.580Z,0.64
2019-02-02T06:41:01.567Z,0.62
2019-02-02T06:42:01.564Z,0.57
2019-02-02T06:43:01.545Z,0.52
2019-02-02T06:44:01.539Z,0.49
2019-02-02T06:45:01.530Z,0.51
2019-02-02T06:46:01.574Z,0.53
2019-02-02T06:47:01.512Z,0.64
2019-02-02T06:48:01.496Z,0.53
2019-02-02T06:49:01.688Z,0.64
2019-02-02T06:50:01.470Z,0.67
2019-02-02T06:51:01.461Z,0.60
2019-02-02T06:52:01.458Z,0.62
2019-02-02T06:53:01.441Z,0.52
2019-02-02T06:54:01.429Z,0.67
2019-02-02T06:55:01.419Z,0.57
2019-02-02T06:56:01.407Z,0.53
2019-02-02T06:57:01.430Z,0.60
2019-02-02T06:58:01.388Z,0.58
2019-02-02T06:59:01.376Z,0.65
2019-02-02T07:00:01.366Z,0.61
2019-02-02T07:01:01.359Z,0.60
2019-02-02T07:02:01.348Z,0.60
2019-02-02T07:03:01.344Z,0.60
2019-02-02T07:04:01.323Z,0.62
2019-02-02T07:05:01.312Z,0.67
2019-02-02T07:06:01.306Z,0.61
2019-02-02T07:07:01.293Z,0.62
2019-02-02T07:08:01.289Z,0.60
2019-02-02T07:09:01.270Z,0.52
2019-02-02T07:10:01.261Z,0.64
2019-02-02T07:11:01.252Z,0.67
2019-02-02T07:12:01.238Z,0.60
2019-02-02T07:13:01.238Z,0.60
2019-02-02T07:14:01.217Z,0.62
2019-02-02T07:15:01.206Z,0.64
2019-02-02T07:16:01.198Z,0.65
2019-02-02T07:17:01.188Z,0.67
2019-02-02T07:18:01.185Z,0.60
2019-02-02T07:19:01.164Z,0.60
2019-02-02T07:20:01.155Z,0.60
2019-02-02T07:21:01.144Z,0.60
2019-02-02T07:22:01.136Z,0.52
2019-02-02T07:23:01.131Z,0.53
2019-02-02T07:24:01.113Z,0.51
2019-02-02T07:25:01.121Z,0.53
2019-02-02T07:26:01.090Z,0.49
2019-02-02T07:27:01.082Z,0.60
2019-02-02T07:28:01.078Z,0.67
2019-02-02T07:29:01.060Z,0.61
2019-02-02T07:30:01.048Z,0.46
2019-02-02T07:31:01.038Z,0.58
2019-02-02T07:32:01.027Z,0.51
2019-02-02T07:33:01.025Z,0.52
2019-02-02T07:34:01.006Z,0.51
2019-02-02T07:35:00.996Z,0.60
2019-02-02T07:36:00.986Z,0.68
2019-02-02T07:37:00.975Z,0.49
2019-02-02T07:38:00.973Z,0.51
2019-02-02T07:39:00.954Z,0.57
2019-02-02T07:40:00.943Z,0.64
2019-02-02T07:41:00.931Z,0.65
2019-02-02T07:42:00.939Z,0.60
2019-02-02T07:43:00.919Z,0.61
2019-02-02T07:44:00.900Z,0.60
2019-02-02T07:45:00.890Z,0.65
2019-02-02T07:46:00.879Z,0.79
2019-02-02T07:47:00.868Z,0.65
2019-02-02T07:48:00.885Z,0.78
2019-02-02T07:49:00.848Z,0.65
2019-02-02T07:50:00.837Z,0.70
2019-02-02T07:51:00.855Z,0.72
2019-02-02T07:52:00.818Z,0.68
2019-02-02T07:53:00.816Z,0.67
2019-02-02T07:54:00.794Z,0.67
2019-02-02T07:55:00.783Z,0.75
2019-02-02T07:56:00.774Z,0.72
2019-02-02T07:57:00.762Z,0.75
2019-02-02T07:58:00.760Z,0.79
2019-02-02T07:59:00.741Z,0.83
2019-02-02T08:00:00.731Z,0.76
2019-02-02T08:01:00.720Z,0.70
2019-02-02T08:02:00.709Z,0.82
2019-02-02T08:03:00.706Z,0.67
2019-02-02T08:04:00.692Z,0.76
2019-02-02T08:05:00.678Z,0.67
2019-02-02T08:06:00.668Z,0.70
2019-02-02T08:07:00.655Z,0.75
2019-02-02T08:08:00.657Z,0.78
2019-02-02T08:09:00.640Z,0.75
2019-02-02T08:10:00.624Z,0.71
2019-02-02T08:11:00.615Z,0.67
2019-02-02T08:12:00.603Z,0.64
2019-02-02T08:13:00.608Z,0.67
2019-02-02T08:14:00.585Z,0.71
2019-02-02T08:15:00.572Z,0.71
2019-02-02T08:16:00.562Z,0.60
2019-02-02T08:17:00.550Z,0.78
2019-02-02T08:18:00.549Z,0.71
2019-02-02T08:19:00.529Z,0.75
2019-02-02T08:20:00.520Z,0.79
2019-02-02T08:21:00.507Z,0.79
2019-02-02T08:22:00.497Z,0.83
2019-02-02T08:23:00.496Z,0.80
2019-02-02T08:24:00.478Z,0.76
2019-02-02T08:25:00.469Z,0.82
2019-02-02T08:26:00.454Z,0.80
2019-02-02T08:27:00.445Z,0.90
2019-02-02T08:28:00.449Z,0.82
2019-02-02T08:29:00.429Z,0.83
2019-02-02T08:30:00.414Z,0.89
2019-02-02T08:31:00.402Z,0.90
2019-02-02T08:32:00.391Z,0.90
2019-02-02T08:33:00.388Z,0.97
2019-02-02T08:34:00.370Z,1.01
2019-02-02T08:35:00.358Z,0.97
2019-02-02T08:36:00.349Z,0.98
2019-02-02T08:37:00.338Z,0.98
2019-02-02T08:38:00.341Z,0.92
2019-02-02T08:39:00.324Z,1.00
2019-02-02T08:40:00.306Z,0.97
2019-02-02T08:41:00.295Z,0.98
2019-02-02T08:42:00.284Z,1.00
2019-02-02T08:43:00.282Z,0.97
2019-02-02T08:44:00.266Z,0.92
2019-02-02T08:45:00.258Z,0.90
2019-02-02T08:46:00.265Z,0.94
2019-02-02T08:47:00.231Z,0.94
2019-02-02T08:48:00.229Z,0.96
2019-02-02T08:49:00.211Z,1.00
2019-02-02T08:50:00.202Z,0.97
2019-02-02T08:51:00.274Z,0.96
2019-02-02T08:52:00.177Z,0.96
2019-02-02T08:53:00.295Z,0.98
2019-02-02T08:54:03.212Z,0.97
2019-02-02T08:55:00.680Z,1.00
2019-02-02T08:56:00.136Z,1.01
2019-02-02T08:57:00.209Z,1.03
2019-02-02T08:58:00.142Z,1.00
2019-02-02T08:59:00.106Z,1.03
2019-02-02T09:00:00.162Z,1.10
2019-02-02T09:01:04.117Z,1.10
2019-02-02T09:02:00.069Z,1.10
2019-02-02T09:03:00.072Z,1.01
2019-02-02T09:04:00.096Z,1.03
2019-02-02T09:05:00.080Z,1.03
2019-02-02T09:06:00.106Z,1.16
2019-02-02T09:07:00.017Z,1.10
2019-02-02T09:08:00.013Z,1.14
2019-02-02T09:08:59.994Z,1.08
2019-02-02T09:09:59.985Z,1.14
2019-02-02T09:10:59.972Z,1.07
2019-02-02T09:11:59.965Z,1.07
2019-02-02T09:12:59.960Z,1.10
2019-02-02T09:13:59.944Z,1.12
2019-02-02T09:14:59.930Z,1.06
2019-02-02T09:15:59.920Z,1.04
2019-02-02T09:16:59.909Z,1.01
2019-02-02T09:17:59.898Z,1.04
2019-02-02T09:18:59.895Z,1.06
2019-02-02T09:19:59.878Z,1.07
2019-02-02T09:20:59.867Z,1.06
2019-02-02T09:21:59.855Z,1.07
2019-02-02T09:23:04.207Z,1.18
2019-02-02T09:24:00.846Z,1.22
2019-02-02T09:24:59.822Z,1.18
2019-02-02T09:25:59.812Z,1.19
2019-02-02T09:26:59.801Z,1.16
2019-02-02T09:27:59.790Z,1.16
2019-02-02T09:28:59.788Z,1.28
2019-02-02T09:29:59.769Z,1.22
2019-02-02T09:30:59.759Z,1.25
2019-02-02T09:31:59.749Z,1.21
2019-02-02T09:32:59.737Z,1.25
2019-02-02T09:33:59.735Z,1.29
2019-02-02T09:34:59.715Z,1.26
2019-02-02T09:35:59.704Z,1.26
2019-02-02T09:36:59.693Z,1.36
2019-02-02T09:37:59.683Z,1.28
2019-02-02T09:38:59.680Z,1.32
2019-02-02T09:39:59.660Z,1.28
2019-02-02T09:40:59.653Z,1.33
2019-02-02T09:41:59.639Z,1.33
2019-02-02T09:42:59.632Z,1.36
2019-02-02T09:43:59.635Z,1.32
2019-02-02T09:44:59.607Z,1.34
2019-02-02T09:45:59.595Z,1.36
2019-02-02T09:46:59.586Z,1.39
2019-02-02T09:47:59.576Z,1.40
2019-02-02T09:48:59.575Z,1.40
2019-02-02T09:49:59.553Z,1.36
2019-02-02T09:50:59.542Z,1.46
2019-02-02T09:51:59.531Z,1.43
2019-02-02T09:52:59.526Z,1.46
2019-02-02T09:53:59.525Z,1.44
2019-02-02T09:54:59.499Z,1.51
2019-02-02T09:55:59.514Z,1.44
2019-02-02T09:56:59.478Z,1.50
2019-02-02T09:57:59.467Z,1.43
2019-02-02T09:58:59.464Z,1.42
2019-02-02T09:59:59.445Z,1.40
2019-02-02T10:00:59.435Z,1.52
2019-02-02T10:01:59.424Z,1.46
2019-02-02T10:02:59.414Z,1.54
2019-02-02T10:03:59.412Z,1.47
2019-02-02T10:04:59.393Z,1.46
2019-02-02T10:05:59.380Z,1.50
2019-02-02T10:06:59.370Z,1.50
2019-02-02T10:07:59.360Z,1.47
2019-02-02T10:08:59.357Z,1.42
2019-02-02T10:09:59.337Z,1.44
2019-02-02T10:10:59.326Z,1.47
2019-02-02T10:11:59.319Z,1.54
2019-02-02T10:12:59.306Z,1.50
2019-02-02T10:13:59.303Z,1.52
2019-02-02T10:14:59.401Z,1.44
2019-02-02T10:15:59.273Z,1.50
2019-02-02T10:16:59.265Z,1.46
2019-02-02T10:17:59.255Z,1.47
2019-02-02T10:18:59.250Z,1.44
2019-02-02T10:19:59.230Z,1.44
2019-02-02T10:21:03.993Z,1.60
2019-02-02T10:22:00.226Z,1.58
2019-02-02T10:22:59.198Z,1.54
2019-02-02T10:23:59.195Z,1.58
2019-02-02T10:24:59.177Z,1.60
2019-02-02T10:25:59.170Z,1.57
2019-02-02T10:26:59.155Z,1.57
2019-02-02T10:27:59.144Z,1.61
2019-02-02T10:28:59.167Z,1.62
2019-02-02T10:29:59.128Z,1.55
2019-02-02T10:30:59.112Z,1.58
2019-02-02T10:31:59.101Z,1.55
2019-02-02T10:32:59.090Z,1.60
2019-02-02T10:33:59.088Z,1.58
2019-02-02T10:34:59.077Z,1.57
2019-02-02T10:35:59.058Z,1.60
2019-02-02T10:36:59.048Z,1.44
2019-02-02T10:37:59.037Z,1.52
2019-02-02T10:38:59.039Z,1.46
2019-02-02T10:39:59.014Z,1.51
2019-02-02T10:40:59.011Z,1.40
2019-02-02T10:41:58.992Z,1.54
2019-02-02T10:42:58.981Z,1.37
2019-02-02T10:43:58.983Z,1.42
2019-02-02T10:44:58.960Z,1.39
2019-02-02T10:45:58.952Z,1.36
2019-02-02T10:46:58.944Z,1.37
2019-02-02T10:47:58.937Z,1.25
2019-02-02T10:48:58.926Z,1.29
2019-02-02T10:49:58.907Z,1.25
2019-02-02T10:50:58.897Z,1.18
2019-02-02T10:51:58.886Z,1.24
2019-02-02T10:52:58.901Z,1.22
2019-02-02T10:53:58.877Z,1.22
2019-02-02T10:54:58.852Z,1.18
2019-02-02T10:55:58.842Z,1.18
2019-02-02T10:56:58.831Z,1.22
2019-02-02T10:57:58.821Z,1.19
2019-02-02T10:58:58.821Z,1.18
2019-02-02T10:59:58.800Z,1.15
2019-02-02T11:00:58.788Z,1.12
2019-02-02T11:01:58.776Z,1.16
2019-02-02T11:02:58.769Z,1.19
2019-02-02T11:03:58.768Z,1.16
2019-02-02T11:04:58.791Z,1.21
2019-02-02T11:05:58.734Z,1.21
2019-02-02T11:06:58.800Z,1.22
2019-02-02T11:07:58.896Z,1.22
2019-02-02T11:08:58.767Z,1.26
2019-02-02T11:09:58.734Z,1.26
2019-02-02T11:10:58.716Z,1.28
2019-02-02T11:11:58.683Z,1.37
2019-02-02T11:12:58.752Z,1.33
2019-02-02T11:13:58.672Z,1.33
2019-02-02T11:14:58.671Z,1.24
2019-02-02T11:15:58.678Z,1.28
2019-02-02T11:16:58.701Z,1.37
2019-02-02T11:17:58.668Z,1.34
2019-02-02T11:18:58.604Z,1.40
2019-02-02T11:19:58.706Z,1.34
2019-02-02T11:20:58.652Z,1.36
2019-02-02T11:21:58.669Z,1.39
2019-02-02T11:22:58.627Z,1.33
2019-02-02T11:23:58.701Z,1.37
2019-02-02T11:24:58.576Z,1.37
2019-02-02T11:25:58.612Z,1.40
2019-02-02T11:26:58.606Z,1.42
2019-02-02T11:27:58.631Z,1.46
2019-02-02T11:28:58.615Z,1.44
2019-02-02T11:29:58.475Z,1.43
2019-02-02T11:30:58.467Z,1.50
2019-02-02T11:32:02.914Z,1.51
2019-02-02T11:32:58.447Z,1.47
2019-02-02T11:33:58.445Z,1.50
2019-02-02T11:34:58.421Z,1.58
2019-02-02T11:35:58.411Z,1.50
2019-02-02T11:36:58.400Z,1.44
2019-02-02T11:37:58.391Z,1.60
2019-02-02T11:38:59.605Z,1.47
2019-02-02T11:39:58.368Z,1.43
2019-02-02T11:40:58.356Z,1.52
2019-02-02T11:41:58.347Z,1.44
2019-02-02T11:42:58.336Z,1.44
2019-02-02T11:43:58.332Z,1.46
2019-02-02T11:44:58.318Z,1.50
2019-02-02T11:45:58.303Z,1.51
2019-02-02T11:46:58.292Z,1.47
2019-02-02T11:47:58.281Z,1.50
2019-02-02T11:48:58.291Z,1.50
2019-02-02T11:49:58.260Z,1.55
2019-02-02T11:50:58.249Z,1.51
2019-02-02T11:51:58.240Z,1.47
2019-02-02T11:52:58.227Z,1.46
2019-02-02T11:53:58.233Z,1.50
2019-02-02T11:54:58.207Z,1.47
2019-02-02T11:55:58.195Z,1.47
2019-02-02T11:56:58.184Z,1.51
2019-02-02T11:57:58.173Z,1.51
2019-02-02T11:58:58.171Z,1.50
2019-02-02T11:59:58.152Z,1.54
2019-02-02T12:00:58.142Z,1.54
2019-02-02T12:01:58.134Z,1.50
2019-02-02T12:02:58.133Z,1.43
2019-02-02T12:03:58.255Z,1.54
2019-02-02T12:04:58.098Z,1.44
2019-02-02T12:05:58.086Z,1.52
2019-02-02T12:06:58.076Z,1.54
2019-02-02T12:07:58.068Z,1.57
2019-02-02T12:08:58.059Z,1.40
2019-02-02T12:09:58.053Z,1.44
2019-02-02T12:10:58.034Z,1.51
2019-02-02T12:11:58.023Z,1.52
2019-02-02T12:12:58.014Z,1.52
2019-02-02T12:13:58.005Z,1.44
2019-02-02T12:14:57.999Z,1.55
2019-02-02T12:15:57.980Z,1.50
2019-02-02T12:16:57.968Z,1.54
2019-02-02T12:17:57.962Z,1.54
2019-02-02T12:18:57.954Z,1.51
2019-02-02T12:19:57.951Z,1.37
2019-02-02T12:20:57.926Z,1.50
2019-02-02T12:21:57.915Z,1.54
2019-02-02T12:22:57.906Z,1.52
2019-02-02T12:23:57.896Z,1.58
2019-02-02T12:24:57.897Z,1.42
2019-02-02T12:25:57.874Z,1.55
2019-02-02T12:26:57.862Z,1.51
2019-02-02T12:27:57.850Z,1.50
2019-02-02T12:28:57.840Z,1.51
2019-02-02T12:29:58.184Z,1.50
2019-02-02T12:30:57.824Z,1.46
2019-02-02T12:31:57.808Z,1.51
2019-02-02T12:32:57.800Z,1.55
2019-02-02T12:33:57.785Z,1.50
2019-02-02T12:34:57.788Z,1.54
2019-02-02T12:35:57.795Z,1.52
2019-02-02T12:36:57.755Z,1.52
2019-02-02T12:37:57.742Z,1.42
2019-02-02T12:38:57.731Z,1.47
2019-02-02T12:39:57.729Z,1.47
2019-02-02T12:40:59.644Z,1.47
2019-02-02T12:41:57.700Z,1.47
2019-02-02T12:42:57.692Z,1.54
2019-02-02T12:43:57.681Z,1.47
2019-02-02T12:44:57.675Z,1.46
2019-02-02T12:45:57.660Z,1.47
2019-02-02T12:46:57.646Z,1.40
2019-02-02T12:47:57.641Z,1.52
2019-02-02T12:48:57.624Z,1.58
2019-02-02T12:49:57.622Z,1.47
2019-02-02T12:50:57.603Z,1.47
2019-02-02T12:51:57.592Z,1.43
2019-02-02T12:52:57.583Z,1.55
2019-02-02T12:53:57.569Z,1.43
2019-02-02T12:54:57.570Z,1.54
2019-02-02T12:55:57.549Z,1.47
2019-02-02T12:56:57.631Z,1.60
2019-02-02T12:57:57.528Z,1.47
2019-02-02T12:58:57.517Z,1.47
2019-02-02T12:59:57.517Z,1.51
2019-02-02T13:00:57.495Z,1.54
2019-02-02T13:01:57.484Z,1.46
2019-02-02T13:02:57.474Z,1.52
2019-02-02T13:04:01.734Z,1.46
2019-02-02T13:04:58.461Z,1.51
2019-02-02T13:05:57.441Z,1.54
2019-02-02T13:06:57.430Z,1.50
2019-02-02T13:07:57.418Z,1.44
2019-02-02T13:08:57.409Z,1.43
2019-02-02T13:09:57.409Z,1.39
2019-02-02T13:10:57.389Z,1.43
2019-02-02T13:11:57.382Z,1.43
2019-02-02T13:12:57.484Z,1.40
2019-02-02T13:13:57.354Z,1.39
2019-02-02T13:14:57.352Z,1.39
2019-02-02T13:15:57.333Z,1.43
2019-02-02T13:16:59.876Z,1.39
2019-02-02T13:17:57.313Z,1.37